createdAt,value
2017-10-25T00:00:33.674Z,14.90
2017-10-25T00:03:01.366Z,14.91
2017-10-25T00:05:29.015Z,14.92
2017-10-25T00:07:56.711Z,14.94
2017-10-25T00:10:24.355Z,14.94
2017-10-25T00:12:52.037Z,14.97
2017-10-25T00:15:19.677Z,14.99
2017-10-25T00:17:47.394Z,15.00
2017-10-25T00:20:15.030Z,15.00
2017-10-25T00:22:42.728Z,15.05
2017-10-25T00:25:10.378Z,15.06
2017-10-25T00:27:38.068Z,15.06
2017-10-25T00:30:05.735Z,15.06
2017-10-25T00:32:33.434Z,15.07
2017-10-25T00:35:01.089Z,15.09
2017-10-25T00:37:28.804Z,15.11
2017-10-25T00:39:56.491Z,15.12
2017-10-25T00:42:24.138Z,15.13
2017-10-25T00:44:51.827Z,15.13
2017-10-25T00:47:19.480Z,15.14
2017-10-25T00:49:47.199Z,15.17
2017-10-25T00:52:14.867Z,15.19
2017-10-25T00:54:42.592Z,15.23
2017-10-25T00:57:10.256Z,15.24
2017-10-25T00:59:37.943Z,15.23
2017-10-25T01:02:05.594Z,15.23
2017-10-25T01:04:33.272Z,15.24
2017-10-25T01:07:00.938Z,15.26
2017-10-25T01:09:28.655Z,15.27
2017-10-25T01:11:56.329Z,15.28
2017-10-25T01:14:24.039Z,15.30
2017-10-25T01:16:51.695Z,15.30
2017-10-25T01:19:19.378Z,15.30
2017-10-25T01:21:47.048Z,15.32
2017-10-25T01:24:14.765Z,15.32
2017-10-25T01:26:42.431Z,15.32
2017-10-25T01:29:10.133Z,15.32
2017-10-25T01:31:37.797Z,15.33
2017-10-25T01:34:05.506Z,15.34
2017-10-25T01:36:33.170Z,15.34
2017-10-25T01:39:00.933Z,15.32
2017-10-25T01:41:28.591Z,15.33
2017-10-25T01:43:56.296Z,15.34
2017-10-25T01:46:23.976Z,15.37
2017-10-25T01:48:51.635Z,15.35
2017-10-25T01:51:19.356Z,15.36
2017-10-25T01:53:46.956Z,15.35
2017-10-25T01:56:14.668Z,15.38
2017-10-25T01:58:42.387Z,15.38
2017-10-25T02:01:10.099Z,15.39
2017-10-25T02:03:37.762Z,15.41
2017-10-25T02:06:05.459Z,15.40
2017-10-25T02:08:33.121Z,15.41
2017-10-25T02:11:00.839Z,15.41
2017-10-25T02:13:28.518Z,15.40
2017-10-25T02:15:56.221Z,15.41
2017-10-25T02:18:23.823Z,15.40
2017-10-25T02:20:51.511Z,15.41
2017-10-25T02:23:19.196Z,15.42
2017-10-25T02:25:46.890Z,15.42
2017-10-25T02:28:14.552Z,15.43
2017-10-25T02:30:42.229Z,15.44
2017-10-25T02:33:09.924Z,15.41
2017-10-25T02:35:37.597Z,15.43
2017-10-25T02:38:05.298Z,15.44
2017-10-25T02:40:32.979Z,15.43
2017-10-25T02:43:00.647Z,15.43
2017-10-25T02:45:28.367Z,15.43
2017-10-25T02:47:56.028Z,15.44
2017-10-25T02:50:23.714Z,15.43
2017-10-25T02:52:51.363Z,15.45
2017-10-25T02:55:19.046Z,15.44
2017-10-25T02:57:46.699Z,15.45
2017-10-25T03:00:14.354Z,15.42
2017-10-25T03:02:42.040Z,15.44
2017-10-25T03:05:09.704Z,15.47
2017-10-25T03:07:37.345Z,15.48
2017-10-25T03:10:05.003Z,15.47
2017-10-25T03:12:32.692Z,15.46
2017-10-25T03:15:00.346Z,15.46
2017-10-25T03:17:28.042Z,15.45
2017-10-25T03:19:55.700Z,15.44
2017-10-25T03:22:23.399Z,15.43
2017-10-25T03:24:51.061Z,15.45
2017-10-25T03:27:18.768Z,15.47
2017-10-25T03:29:46.433Z,15.48
2017-10-25T03:32:14.162Z,15.49
2017-10-25T03:34:41.821Z,15.49
2017-10-25T03:37:09.524Z,15.49
2017-10-25T03:39:37.220Z,15.49
2017-10-25T03:42:04.910Z,15.50
2017-10-25T03:44:32.562Z,15.49
2017-10-25T03:47:00.221Z,15.50
2017-10-25T03:49:27.919Z,15.50
2017-10-25T03:51:55.577Z,15.49
2017-10-25T03:54:23.290Z,15.49
2017-10-25T03:56:50.975Z,15.49
2017-10-25T03:59:18.679Z,15.49
2017-10-25T04:01:46.334Z,15.49
2017-10-25T04:04:14.018Z,15.50
2017-10-25T04:06:41.670Z,15.50
2017-10-25T04:09:09.370Z,15.50
2017-10-25T04:11:37.041Z,15.49
2017-10-25T04:14:04.740Z,15.50
2017-10-25T04:16:32.392Z,15.51
2017-10-25T04:19:00.086Z,15.51
2017-10-25T04:21:27.743Z,15.51
2017-10-25T04:23:55.440Z,15.50
2017-10-25T04:26:23.082Z,15.50
2017-10-25T04:28:50.781Z,15.52
2017-10-25T04:31:18.438Z,15.52
2017-10-25T04:33:46.160Z,15.48
2017-10-25T04:36:13.825Z,15.49
2017-10-25T04:38:41.415Z,15.51
2017-10-25T04:41:09.105Z,15.51
2017-10-25T04:43:36.754Z,15.52
2017-10-25T04:46:04.432Z,15.52
2017-10-25T04:48:32.099Z,15.49
2017-10-25T04:50:59.956Z,15.48
2017-10-25T04:53:27.618Z,15.50
2017-10-25T04:55:55.305Z,15.51
2017-10-25T04:58:22.964Z,15.51
2017-10-25T05:00:50.656Z,15.51
2017-10-25T05:03:18.310Z,15.53
2017-10-25T05:05:46.003Z,15.51
2017-10-25T05:08:13.684Z,15.50
2017-10-25T05:10:41.384Z,15.48
2017-10-25T05:13:09.043Z,15.48
2017-10-25T05:15:36.737Z,15.49
2017-10-25T05:18:04.407Z,15.49
2017-10-25T05:20:32.114Z,15.49
2017-10-25T05:22:59.774Z,15.49
2017-10-25T05:25:27.482Z,15.48
2017-10-25T05:27:55.167Z,15.48
2017-10-25T05:30:22.857Z,15.48
2017-10-25T05:32:50.514Z,15.48
2017-10-25T05:35:18.224Z,15.48
2017-10-25T05:37:45.873Z,15.48
2017-10-25T05:40:16.022Z,15.49
2017-10-25T05:42:43.610Z,15.50
2017-10-25T05:45:11.266Z,15.49
2017-10-25T05:47:38.950Z,15.48
2017-10-25T05:50:06.609Z,15.42
2017-10-25T05:52:34.461Z,15.40
2017-10-25T05:55:03.837Z,15.39
2017-10-25T05:57:31.533Z,15.37
2017-10-25T05:59:59.193Z,15.37
2017-10-25T06:02:26.877Z,15.35
2017-10-25T06:04:54.571Z,15.33
2017-10-25T06:07:22.209Z,15.33
2017-10-25T06:09:49.861Z,15.31
2017-10-25T06:12:17.559Z,15.32
2017-10-25T06:14:45.254Z,15.33
2017-10-25T06:17:12.906Z,15.34
2017-10-25T06:19:40.550Z,15.33
2017-10-25T06:22:08.304Z,15.34
2017-10-25T06:24:35.956Z,15.37
2017-10-25T06:27:03.678Z,15.37
2017-10-25T06:29:31.452Z,15.38
2017-10-25T06:31:59.138Z,15.37
2017-10-25T06:34:26.714Z,15.36
2017-10-25T06:36:54.408Z,15.37
2017-10-25T06:39:22.009Z,15.38
2017-10-25T06:41:49.670Z,15.38
2017-10-25T06:44:17.360Z,15.41
2017-10-25T06:46:45.006Z,15.41
2017-10-25T06:49:12.696Z,15.41
2017-10-25T06:51:40.296Z,15.39
2017-10-25T06:54:08.000Z,15.39
2017-10-25T06:56:35.602Z,15.41
2017-10-25T06:59:03.294Z,15.39
2017-10-25T07:01:30.905Z,15.39
2017-10-25T07:03:58.536Z,15.40
2017-10-25T07:06:26.142Z,15.42
2017-10-25T07:08:53.865Z,15.41
2017-10-25T07:11:21.463Z,15.44
2017-10-25T07:13:49.108Z,15.41
2017-10-25T07:16:16.780Z,15.39
2017-10-25T07:18:44.478Z,15.39
2017-10-25T07:21:12.085Z,15.39
2017-10-25T07:23:39.787Z,15.43
2017-10-25T07:26:07.447Z,15.44
2017-10-25T07:28:35.144Z,15.47
2017-10-25T07:31:02.862Z,15.51
2017-10-25T07:33:30.575Z,15.53
2017-10-25T07:35:58.257Z,15.52
2017-10-25T07:38:26.939Z,15.55
2017-10-25T07:40:54.637Z,15.54
2017-10-25T07:43:22.352Z,15.58
2017-10-25T07:45:50.028Z,15.61
2017-10-25T07:48:17.688Z,15.62
2017-10-25T07:50:45.391Z,15.62
2017-10-25T07:53:13.058Z,15.61
2017-10-25T07:55:40.742Z,15.62
2017-10-25T07:58:08.383Z,15.63
2017-10-25T08:00:36.054Z,15.67
2017-10-25T08:03:03.738Z,15.72
2017-10-25T08:05:31.459Z,15.75
2017-10-25T08:07:59.137Z,15.77
2017-10-25T08:10:26.859Z,15.81
2017-10-25T08:12:54.548Z,15.89
2017-10-25T08:15:22.255Z,16.02
2017-10-25T08:17:49.905Z,16.13
2017-10-25T08:20:17.626Z,16.16
2017-10-25T08:22:45.304Z,16.20
2017-10-25T08:25:13.002Z,16.17
2017-10-25T08:27:40.666Z,16.17
2017-10-25T08:30:08.366Z,16.13
2017-10-25T08:32:36.047Z,16.13
2017-10-25T08:35:03.729Z,16.13
2017-10-25T08:37:31.416Z,16.15
2017-10-25T08:39:59.044Z,16.18
2017-10-25T08:42:26.720Z,16.25
2017-10-25T08:44:54.463Z,16.27
2017-10-25T08:47:22.162Z,16.29
2017-10-25T08:49:49.842Z,16.29
2017-10-25T08:52:17.535Z,16.28
2017-10-25T08:54:45.189Z,16.24
2017-10-25T08:57:12.883Z,16.18
2017-10-25T08:59:40.564Z,16.08
2017-10-25T09:02:08.185Z,15.95
2017-10-25T09:04:35.831Z,15.88
2017-10-25T09:07:03.544Z,15.84
2017-10-25T09:09:31.213Z,15.79
2017-10-25T09:11:58.898Z,15.72
2017-10-25T09:14:26.559Z,15.69
2017-10-25T09:16:54.304Z,15.65
2017-10-25T09:19:21.953Z,15.62
2017-10-25T09:21:49.665Z,15.64
2017-10-25T09:24:18.162Z,15.70
2017-10-25T09:26:45.864Z,15.76
2017-10-25T09:29:13.512Z,15.83
2017-10-25T09:31:41.200Z,15.89
2017-10-25T09:34:08.870Z,15.93
2017-10-25T09:36:36.569Z,15.96
2017-10-25T09:39:04.269Z,15.97
2017-10-25T09:41:31.940Z,15.94
2017-10-25T09:43:59.595Z,15.90
2017-10-25T09:46:27.308Z,15.84
2017-10-25T09:48:54.966Z,15.79
2017-10-25T09:51:22.722Z,15.88
2017-10-25T09:53:50.383Z,15.88
2017-10-25T09:56:18.059Z,15.88
2017-10-25T09:58:45.720Z,15.94
2017-10-25T10:01:13.438Z,15.98
2017-10-25T10:03:41.111Z,16.03
2017-10-25T10:06:08.767Z,15.97
2017-10-25T10:08:36.446Z,16.05
2017-10-25T10:11:04.107Z,16.19
2017-10-25T10:13:31.780Z,16.29
2017-10-25T10:15:59.400Z,16.31
2017-10-25T10:18:27.085Z,16.41
2017-10-25T10:20:54.662Z,16.47
2017-10-25T10:23:22.398Z,16.44
2017-10-25T10:25:50.059Z,16.55
2017-10-25T10:28:17.769Z,16.63
2017-10-25T10:30:45.455Z,16.63
2017-10-25T10:33:13.141Z,16.59
2017-10-25T10:35:40.822Z,16.45
2017-10-25T10:38:08.589Z,16.42
2017-10-25T10:40:36.248Z,16.40
2017-10-25T10:43:03.946Z,16.36
2017-10-25T10:45:31.691Z,16.35
2017-10-25T10:47:59.377Z,16.43
2017-10-25T10:50:27.056Z,16.48
2017-10-25T10:52:54.689Z,16.65
2017-10-25T10:55:22.341Z,16.92
2017-10-25T10:57:50.257Z,17.26
2017-10-25T11:00:17.971Z,17.64
2017-10-25T11:02:45.617Z,17.77
2017-10-25T11:05:13.266Z,17.76
2017-10-25T11:07:41.120Z,17.73
2017-10-25T11:10:08.756Z,17.71
2017-10-25T11:12:36.433Z,17.63
2017-10-25T11:15:04.053Z,17.63
2017-10-25T11:17:31.729Z,17.74
2017-10-25T11:19:59.450Z,17.75
2017-10-25T11:22:27.094Z,17.78
2017-10-25T11:24:54.794Z,17.84
2017-10-25T11:27:22.442Z,17.84
2017-10-25T11:29:50.133Z,17.68
2017-10-25T11:32:17.773Z,17.48
2017-10-25T11:34:45.530Z,17.15
2017-10-25T11:37:13.198Z,17.05
2017-10-25T11:39:40.834Z,16.96
2017-10-25T11:42:08.516Z,16.82
2017-10-25T11:44:36.211Z,16.67
2017-10-25T11:47:03.801Z,16.59
2017-10-25T11:49:31.419Z,16.58
2017-10-25T11:51:59.081Z,16.56
2017-10-25T11:54:26.710Z,16.60
2017-10-25T11:56:54.316Z,16.58
2017-10-25T11:59:21.917Z,16.61
2017-10-25T12:01:49.627Z,16.62
2017-10-25T12:04:17.309Z,16.70
2017-10-25T12:06:45.035Z,16.75
2017-10-25T12:09:12.739Z,16.71
2017-10-25T12:11:40.439Z,16.72
2017-10-25T12:14:08.094Z,16.74
2017-10-25T12:16:35.777Z,16.74
2017-10-25T12:19:03.427Z,16.63
2017-10-25T12:21:31.054Z,16.56
2017-10-25T12:23:58.716Z,16.48
2017-10-25T12:26:26.399Z,16.44
2017-10-25T12:28:54.048Z,16.42
2017-10-25T12:31:21.736Z,16.39
2017-10-25T12:33:49.390Z,16.36
2017-10-25T12:36:17.096Z,16.35
2017-10-25T12:38:44.812Z,16.35
2017-10-25T12:41:26.460Z,16.35
2017-10-25T12:43:56.080Z,16.33
2017-10-25T12:46:23.786Z,16.26
2017-10-25T12:48:51.410Z,16.27
2017-10-25T12:51:19.072Z,16.30
2017-10-25T12:53:46.757Z,16.27
2017-10-25T12:56:14.334Z,16.11
2017-10-25T12:58:42.354Z,15.96
2017-10-25T13:01:10.079Z,15.75
2017-10-25T13:03:37.723Z,15.56
2017-10-25T13:06:05.388Z,15.41
2017-10-25T13:08:33.087Z,15.31
2017-10-25T13:11:01.331Z,15.31
2017-10-25T13:13:34.327Z,15.33
2017-10-25T13:16:02.830Z,15.37
2017-10-25T13:18:31.051Z,15.42
2017-10-25T13:20:58.647Z,15.44
2017-10-25T13:23:26.269Z,15.42
2017-10-25T13:25:53.877Z,15.34
2017-10-25T13:28:21.550Z,15.23
2017-10-25T13:30:49.199Z,15.20
2017-10-25T13:33:16.822Z,15.11
2017-10-25T13:35:44.478Z,15.09
2017-10-25T13:38:12.093Z,15.07
2017-10-25T13:40:39.676Z,15.07
2017-10-25T13:43:07.365Z,15.02
2017-10-25T13:45:34.945Z,15.04
2017-10-25T13:48:02.596Z,15.06
2017-10-25T13:50:30.187Z,15.07
2017-10-25T13:52:57.812Z,15.04
2017-10-25T13:55:25.422Z,15.00
2017-10-25T13:57:53.110Z,14.98
2017-10-25T14:00:20.782Z,14.97
2017-10-25T14:02:48.452Z,14.97
2017-10-25T14:05:16.127Z,15.01
2017-10-25T14:10:33.711Z,15.07
2017-10-25T14:13:06.796Z,15.07
2017-10-25T14:15:34.588Z,15.07
2017-10-25T14:18:02.237Z,15.05
2017-10-25T14:20:29.917Z,15.03
2017-10-25T14:22:57.504Z,15.03
2017-10-25T14:25:25.135Z,15.05
2017-10-25T14:28:04.587Z,15.04
2017-10-25T14:30:33.300Z,15.05
2017-10-25T14:33:00.918Z,15.11
2017-10-25T14:35:28.550Z,15.10
2017-10-25T14:37:56.245Z,15.05
2017-10-25T14:40:23.878Z,14.98
2017-10-25T14:42:57.864Z,14.96
2017-10-25T14:45:30.923Z,14.97
2017-10-25T14:48:04.570Z,15.01
2017-10-25T14:50:38.166Z,15.07
2017-10-25T14:55:51.518Z,15.25
2017-10-25T14:58:25.697Z,15.31
2017-10-25T15:01:01.527Z,15.30
2017-10-25T15:03:36.533Z,15.23
2017-10-25T15:06:11.175Z,15.16
2017-10-25T15:08:44.194Z,15.09
2017-10-25T15:11:18.181Z,15.02
2017-10-25T15:13:52.938Z,14.96
2017-10-25T15:16:26.379Z,14.99
2017-10-25T15:18:59.726Z,15.02
2017-10-25T15:21:33.391Z,14.97
2017-10-25T15:24:08.265Z,14.89
2017-10-25T15:26:42.600Z,14.78
2017-10-25T15:29:15.670Z,14.78
2017-10-25T15:31:50.918Z,14.79
2017-10-25T15:34:26.540Z,14.76
2017-10-25T15:36:54.778Z,14.74
2017-10-25T15:39:22.369Z,14.74
2017-10-25T15:41:50.034Z,14.63
2017-10-25T15:44:17.696Z,14.52
2017-10-25T15:46:45.294Z,14.38
2017-10-25T15:49:12.937Z,14.34
2017-10-25T15:51:40.523Z,14.32
2017-10-25T15:54:08.146Z,14.26
2017-10-25T15:56:35.753Z,14.21
2017-10-25T15:59:03.370Z,14.11
2017-10-25T16:01:30.962Z,14.03
2017-10-25T16:03:58.722Z,13.99
2017-10-25T16:06:26.342Z,13.96
2017-10-25T16:08:53.966Z,13.96
2017-10-25T16:11:21.558Z,13.99
2017-10-25T16:13:49.187Z,14.00
2017-10-25T16:16:16.973Z,14.02
2017-10-25T16:18:44.656Z,14.00
2017-10-25T16:21:12.279Z,13.99
2017-10-25T16:23:39.900Z,13.99
2017-10-25T16:26:07.505Z,13.96
2017-10-25T16:28:35.180Z,13.95
2017-10-25T16:31:02.784Z,13.93
2017-10-25T16:33:30.730Z,13.85
2017-10-25T16:35:58.371Z,13.75
2017-10-25T16:38:28.587Z,13.67
2017-10-25T16:41:06.206Z,13.64
2017-10-25T16:43:40.427Z,13.65
2017-10-25T16:46:08.430Z,13.62
2017-10-25T16:48:36.049Z,13.57
2017-10-25T16:51:03.706Z,13.53
2017-10-25T16:53:31.299Z,13.47
2017-10-25T16:55:58.926Z,13.39
2017-10-25T16:58:26.529Z,13.27
2017-10-25T17:00:54.294Z,13.17
2017-10-25T17:03:21.877Z,13.14
2017-10-25T17:05:49.615Z,13.06
2017-10-25T17:08:17.206Z,13.02
2017-10-25T17:10:44.910Z,12.96
2017-10-25T17:13:12.559Z,12.89
2017-10-25T17:15:40.205Z,12.80
2017-10-25T17:18:07.793Z,12.76
2017-10-25T17:20:35.435Z,12.74
2017-10-25T17:23:03.035Z,12.80
2017-10-25T17:25:30.713Z,12.77
2017-10-25T17:27:58.305Z,12.74
2017-10-25T17:30:25.899Z,12.67
2017-10-25T17:33:08.754Z,12.57
2017-10-25T17:35:37.579Z,12.49
2017-10-25T17:38:05.230Z,12.41
2017-10-25T17:40:32.843Z,12.33
2017-10-25T17:43:00.507Z,12.25
2017-10-25T17:45:33.334Z,12.16
2017-10-25T17:48:01.806Z,12.10
2017-10-25T17:50:29.671Z,12.00
2017-10-25T17:52:57.349Z,11.95
2017-10-25T17:55:24.949Z,11.92
2017-10-25T17:57:52.572Z,11.84
2017-10-25T18:00:20.176Z,11.78
2017-10-25T18:02:47.814Z,11.73
2017-10-25T18:05:15.404Z,11.69
2017-10-25T18:07:43.099Z,11.67
2017-10-25T18:10:10.707Z,11.66
2017-10-25T18:12:38.357Z,11.67
2017-10-25T18:15:05.959Z,11.71
2017-10-25T18:17:33.588Z,11.78
2017-10-25T18:20:01.326Z,11.81
2017-10-25T18:22:28.954Z,11.79
2017-10-25T18:24:56.642Z,11.75
2017-10-25T18:27:24.250Z,11.71
2017-10-25T18:29:51.905Z,11.69
2017-10-25T18:32:19.510Z,11.63
2017-10-25T18:34:47.163Z,11.57
2017-10-25T18:37:14.814Z,11.54
2017-10-25T18:39:42.425Z,11.51
2017-10-25T18:42:12.103Z,11.51
2017-10-25T18:44:43.461Z,11.53
2017-10-25T18:47:11.343Z,11.57
2017-10-25T18:49:38.992Z,11.58
2017-10-25T18:52:06.587Z,11.61
2017-10-25T18:54:34.360Z,11.64
2017-10-25T18:57:01.958Z,11.65
2017-10-25T18:59:29.608Z,11.65
2017-10-25T19:01:57.278Z,11.67
2017-10-25T19:04:24.876Z,11.69
2017-10-25T19:06:52.577Z,11.71
2017-10-25T19:09:20.173Z,11.73
2017-10-25T19:11:47.873Z,11.78
2017-10-25T19:14:15.456Z,11.78
2017-10-25T19:16:43.083Z,11.78
2017-10-25T19:19:10.696Z,11.78
2017-10-25T19:21:38.400Z,11.83
2017-10-25T19:24:11.617Z,11.89
2017-10-25T19:26:45.321Z,11.92
2017-10-25T19:29:13.763Z,11.94
2017-10-25T19:31:41.404Z,11.94
2017-10-25T19:34:09.396Z,11.94
2017-10-25T19:36:37.086Z,11.94
2017-10-25T19:39:04.826Z,11.91
2017-10-25T19:41:33.518Z,11.95
2017-10-25T19:44:01.191Z,11.98
2017-10-25T19:46:28.871Z,12.02
2017-10-25T19:48:56.514Z,12.01
2017-10-25T19:51:24.223Z,11.97
2017-10-25T19:53:51.910Z,11.93
2017-10-25T19:56:19.608Z,11.90
2017-10-25T19:58:47.273Z,11.88
2017-10-25T20:01:14.951Z,11.84
2017-10-25T20:03:42.625Z,11.81
2017-10-25T20:06:10.298Z,11.77
2017-10-25T20:08:37.936Z,11.73
2017-10-25T20:11:05.590Z,11.71
2017-10-25T20:13:33.280Z,11.67
2017-10-25T20:16:00.952Z,11.65
2017-10-25T20:18:31.449Z,11.61
2017-10-25T20:20:59.058Z,11.58
2017-10-25T20:23:26.777Z,11.57
2017-10-25T20:25:54.445Z,11.49
2017-10-25T20:28:22.085Z,11.45
2017-10-25T20:30:50.047Z,11.40
2017-10-25T20:33:22.131Z,11.35
2017-10-25T20:35:49.717Z,11.30
2017-10-25T20:38:17.355Z,11.26
2017-10-25T20:40:45.061Z,11.21
2017-10-25T20:43:12.685Z,11.19
2017-10-25T20:45:40.345Z,11.13
2017-10-25T20:48:08.077Z,11.17
2017-10-25T20:50:35.752Z,11.14
2017-10-25T20:53:03.448Z,11.13
2017-10-25T20:55:31.115Z,11.15
2017-10-25T20:57:58.705Z,11.18
2017-10-25T21:00:26.423Z,11.19
2017-10-25T21:02:54.098Z,11.16
2017-10-25T21:05:21.793Z,11.11
2017-10-25T21:07:49.458Z,11.05
2017-10-25T21:10:17.146Z,10.99
2017-10-25T21:12:44.857Z,10.93
2017-10-25T21:15:12.558Z,10.88
2017-10-25T21:17:40.209Z,10.84
2017-10-25T21:20:07.891Z,10.76
2017-10-25T21:22:35.582Z,10.73
2017-10-25T21:25:03.304Z,10.71
2017-10-25T21:27:30.982Z,10.70
2017-10-25T21:29:58.698Z,10.67
2017-10-25T21:32:26.364Z,10.66
2017-10-25T21:34:54.072Z,10.63
2017-10-25T21:37:21.729Z,10.59
2017-10-25T21:39:49.490Z,10.56
2017-10-25T21:42:17.162Z,10.52
2017-10-25T21:44:44.826Z,10.50
2017-10-25T21:47:12.534Z,10.51
2017-10-25T21:49:40.171Z,10.51
2017-10-25T21:52:07.890Z,10.49
2017-10-25T21:54:35.595Z,10.47
2017-10-25T21:57:03.313Z,10.45
2017-10-25T21:59:30.891Z,10.47
2017-10-25T22:01:58.609Z,10.45
2017-10-25T22:04:26.257Z,10.41
2017-10-25T22:06:53.933Z,10.38
2017-10-25T22:09:21.594Z,10.35
2017-10-25T22:11:49.273Z,10.33
2017-10-25T22:14:16.916Z,10.33
2017-10-25T22:16:44.637Z,10.30
2017-10-25T22:19:12.300Z,10.27
2017-10-25T22:21:39.997Z,10.25
2017-10-25T22:24:07.656Z,10.23
2017-10-25T22:26:35.355Z,10.21
2017-10-25T22:29:03.012Z,10.17
2017-10-25T22:31:30.676Z,10.15
2017-10-25T22:33:58.382Z,10.13
2017-10-25T22:36:26.035Z,10.12
2017-10-25T22:38:53.774Z,10.14
2017-10-25T22:41:22.376Z,10.12
2017-10-25T22:43:50.074Z,10.11
2017-10-25T22:46:17.752Z,10.10
2017-10-25T22:48:45.430Z,10.09
2017-10-25T22:51:13.076Z,10.08
2017-10-25T22:53:40.766Z,10.05
2017-10-25T22:56:08.416Z,10.01
2017-10-25T22:58:36.081Z,10.01
2017-10-25T23:01:03.726Z,10.00
2017-10-25T23:03:31.437Z,9.99
2017-10-25T23:05:59.116Z,9.95
2017-10-25T23:08:26.801Z,9.94
2017-10-25T23:10:54.436Z,9.95
2017-10-25T23:13:22.158Z,9.96
2017-10-25T23:15:49.820Z,9.94
2017-10-25T23:18:17.518Z,9.90
2017-10-25T23:20:45.095Z,9.90
2017-10-25T23:23:12.786Z,9.92
2017-10-25T23:25:40.438Z,9.88
2017-10-25T23:28:08.079Z,9.92
2017-10-25T23:30:35.762Z,9.91
2017-10-25T23:33:03.423Z,9.91
2017-10-25T23:35:31.111Z,9.90
2017-10-25T23:37:58.746Z,9.90
2017-10-25T23:40:26.458Z,9.87
2017-10-25T23:42:54.106Z,9.82
2017-10-25T23:45:21.772Z,9.78
2017-10-25T23:47:49.431Z,9.76
2017-10-25T23:50:17.127Z,9.76
2017-10-25T23:52:44.782Z,9.75
2017-10-25T23:55:12.469Z,9.76
2017-10-25T23:57:40.150Z,9.77
